Time;durP1;ratioP1;P1;durP2;ratioP2;P2;SDS_P1;SDS_P2;PMS_P1;PMS_P2;Temp;Humidity;BMP_temperature;BMP_pressure;BME280_temperature;BME280_humidity;BME280_pressure;Samples;Min_cycle;Max_cycle;Signal;HPM_P1;HPM_P2
2024/02/11 00:00:14;;;;;;;0.40;0.20;;;15.10;99.90;;;;;;5109472;28;20426;-78
2024/02/11 00:02:40;;;;;;;0.30;0.20;;;15.00;99.90;;;;;;5110246;28;20594;-78
2024/02/11 00:05:09;;;;;;;0.40;0.40;;;15.00;99.90;;;;;;5109640;28;20412;-78
2024/02/11 00:07:41;;;;;;;0.30;0.20;;;15.00;99.90;;;;;;5109647;28;20474;-78
2024/02/11 00:10:10;;;;;;;0.30;0.20;;;15.00;99.90;;;;;;5109437;28;20536;-78
2024/02/11 00:12:37;;;;;;;0.30;0.20;;;15.00;99.90;;;;;;5108320;28;20775;-78
2024/02/11 00:15:05;;;;;;;0.87;0.87;;;15.00;99.90;;;;;;5108119;28;20439;-78
2024/02/11 00:17:32;;;;;;;0.30;0.20;;;14.90;99.90;;;;;;5109384;28;20400;-78
2024/02/11 00:19:59;;;;;;;0.60;0.60;;;14.90;99.90;;;;;;5109560;28;20400;-79
2024/02/11 00:22:26;;;;;;;0.40;0.40;;;14.90;99.90;;;;;;5108042;28;20409;-79
2024/02/11 00:24:55;;;;;;;0.90;0.50;;;14.80;99.90;;;;;;5108047;28;20448;-78
2024/02/11 00:27:21;;;;;;;0.30;0.20;;;14.80;99.90;;;;;;5108927;28;20408;-78
2024/02/11 00:29:47;;;;;;;0.30;0.20;;;14.80;99.90;;;;;;5109917;28;20423;-79
2024/02/11 00:32:13;;;;;;;0.40;0.30;;;14.80;99.90;;;;;;5107639;28;20419;-78
2024/02/11 00:34:39;;;;;;;1.37;1.27;;;14.90;99.90;;;;;;5107842;28;20544;-79
2024/02/11 00:37:06;;;;;;;0.30;0.30;;;14.90;99.90;;;;;;5107639;28;20570;-78
2024/02/11 00:39:33;;;;;;;0.30;0.20;;;14.90;99.90;;;;;;5109657;27;20199;-78
2024/02/11 00:41:59;;;;;;;0.30;0.20;;;14.90;99.90;;;;;;5108781;28;20407;-79
2024/02/11 00:44:24;;;;;;;0.73;0.73;;;14.90;99.90;;;;;;5109363;28;20444;-78
2024/02/11 00:46:50;;;;;;;0.30;0.30;;;15.00;99.90;;;;;;5107631;28;20184;-78
2024/02/11 00:49:16;;;;;;;0.40;0.40;;;15.00;99.90;;;;;;5107674;28;20219;-78
2024/02/11 00:51:41;;;;;;;5.53;5.20;;;15.00;99.90;;;;;;5108591;28;20578;-78
2024/02/11 00:54:07;;;;;;;3.60;2.50;;;15.00;99.90;;;;;;5109093;28;20192;-78
2024/02/11 00:56:32;;;;;;;0.30;0.20;;;14.90;99.90;;;;;;5108773;28;20216;-79
2024/02/11 00:58:58;;;;;;;1.70;1.60;;;14.90;99.90;;;;;;5107433;28;20306;-78
2024/02/11 01:01:24;;;;;;;0.30;0.20;;;14.90;99.90;;;;;;5107887;28;20266;-78
2024/02/11 01:03:56;;;;;;;0.77;0.73;;;14.90;99.90;;;;;;5107072;28;20221;-78
2024/02/11 01:06:26;;;;;;;0.30;0.20;;;14.90;99.90;;;;;;5107509;28;20836;-78
2024/02/11 01:08:52;;;;;;;0.40;0.20;;;14.90;99.90;;;;;;5108949;28;20479;-78
2024/02/11 01:11:22;;;;;;;0.97;0.97;;;14.80;99.90;;;;;;5108260;27;20523;-78
2024/02/11 01:13:49;;;;;;;0.30;0.20;;;14.70;99.90;;;;;;5108824;28;20447;-78
2024/02/11 01:16:15;;;;;;;0.30;0.20;;;14.50;99.90;;;;;;5108109;28;20407;-78
2024/02/11 01:18:41;;;;;;;0.67;0.67;;;14.40;99.90;;;;;;5108752;28;21084;-77
2024/02/11 01:21:07;;;;;;;0.30;0.20;;;14.30;99.90;;;;;;5108012;28;20499;-79
2024/02/11 01:23:33;;;;;;;0.30;0.20;;;14.30;99.90;;;;;;5107021;28;20203;-78
2024/02/11 01:25:59;;;;;;;0.70;0.70;;;14.20;99.90;;;;;;5106641;28;20424;-78
2024/02/11 01:28:25;;;;;;;0.30;0.20;;;14.20;99.90;;;;;;5108381;28;20985;-78
2024/02/11 01:30:50;;;;;;;0.30;0.30;;;14.30;99.90;;;;;;5108134;28;20401;-78
2024/02/11 01:33:16;;;;;;;0.30;0.20;;;14.30;99.90;;;;;;5108035;28;20441;-78
2024/02/11 01:35:42;;;;;;;0.30;0.20;;;14.40;99.90;;;;;;5108039;28;20454;-78
2024/02/11 01:38:11;;;;;;;0.77;0.77;;;14.30;99.90;;;;;;5106459;28;20218;-78
2024/02/11 01:40:38;;;;;;;0.30;0.20;;;14.30;99.90;;;;;;5108149;28;20404;-78
2024/02/11 01:43:10;;;;;;;0.40;0.40;;;14.30;99.90;;;;;;5107885;27;20497;-78
2024/02/11 01:45:36;;;;;;;0.40;0.37;;;14.30;99.90;;;;;;5106757;28;20412;-79
2024/02/11 01:48:06;;;;;;;0.30;0.20;;;14.30;99.90;;;;;;5107601;28;20432;-79
2024/02/11 01:50:33;;;;;;;0.40;0.20;;;14.30;99.90;;;;;;5106185;28;20499;-78
2024/02/11 01:53:00;;;;;;;0.30;0.20;;;14.30;99.90;;;;;;5107550;28;20432;-78
2024/02/11 01:55:25;;;;;;;0.30;0.20;;;14.30;99.90;;;;;;5107755;28;20448;-78
2024/02/11 01:57:52;;;;;;;0.30;0.30;;;14.30;99.90;;;;;;5107630;28;20620;-78
2024/02/11 02:00:19;;;;;;;1.17;1.17;;;14.20;99.90;;;;;;5106252;28;20187;-78
2024/02/11 02:02:47;;;;;;;0.30;0.20;;;14.20;99.90;;;;;;5107579;28;20448;-79
2024/02/11 02:05:14;;;;;;;0.30;0.20;;;14.20;99.90;;;;;;5107017;28;20544;-77
2024/02/11 02:07:40;;;;;;;0.30;0.30;;;14.20;99.90;;;;;;5105343;28;20530;-78
2024/02/11 02:10:06;;;;;;;0.30;0.20;;;14.20;99.90;;;;;;5106034;28;20601;-78
2024/02/11 02:12:33;;;;;;;0.30;0.20;;;14.20;99.90;;;;;;5105974;28;20549;-78
2024/02/11 02:14:59;;;;;;;0.40;0.40;;;14.10;99.90;;;;;;5105395;28;20925;-78
2024/02/11 02:17:24;;;;;;;0.40;0.40;;;14.10;99.90;;;;;;5105953;28;20420;-77
2024/02/11 02:19:51;;;;;;;0.30;0.20;;;14.10;99.90;;;;;;5106980;28;20776;-79
2024/02/11 02:22:19;;;;;;;0.30;0.30;;;14.10;99.90;;;;;;5106948;28;20176;-79
2024/02/11 02:24:44;;;;;;;0.30;0.20;;;14.20;99.90;;;;;;5107442;28;20433;-79
2024/02/11 02:27:13;;;;;;;0.30;0.20;;;14.20;99.90;;;;;;5106764;28;20405;-78
2024/02/11 02:29:39;;;;;;;0.40;0.20;;;14.20;99.90;;;;;;5107291;28;20196;-79
2024/02/11 02:32:04;;;;;;;0.30;0.20;;;14.10;99.90;;;;;;5106757;28;20477;-78
2024/02/11 02:34:30;;;;;;;1.60;1.50;;;14.10;99.90;;;;;;5106869;28;20649;-78
2024/02/11 02:36:56;;;;;;;0.30;0.20;;;14.10;99.90;;;;;;5105639;28;20803;-78
2024/02/11 02:39:24;;;;;;;0.30;0.20;;;14.10;99.90;;;;;;5107107;28;20435;-79
2024/02/11 02:41:49;;;;;;;0.80;0.80;;;14.10;99.90;;;;;;5106666;28;20226;-78
2024/02/11 02:44:15;;;;;;;0.30;0.20;;;14.10;99.90;;;;;;5106879;27;20467;-78
2024/02/11 02:46:41;;;;;;;0.30;0.20;;;14.00;99.90;;;;;;5106626;28;20184;-78
2024/02/11 02:49:07;;;;;;;0.30;0.20;;;14.10;99.90;;;;;;5106582;28;20432;-78
2024/02/11 02:51:33;;;;;;;0.30;0.20;;;14.00;99.90;;;;;;5104979;28;20298;-78
2024/02/11 02:54:02;;;;;;;0.30;0.20;;;14.10;99.90;;;;;;5106855;28;20794;-78
2024/02/11 02:56:27;;;;;;;0.30;0.20;;;14.00;99.90;;;;;;5105006;28;20436;-78
2024/02/11 02:58:54;;;;;;;0.30;0.20;;;14.00;99.90;;;;;;5106838;28;20432;-78
2024/02/11 03:01:23;;;;;;;0.30;0.20;;;14.00;99.90;;;;;;5106203;28;20220;-78
2024/02/11 03:03:49;;;;;;;0.30;0.20;;;14.00;99.90;;;;;;5106590;28;20436;-78
2024/02/11 03:06:15;;;;;;;0.40;0.30;;;14.10;99.90;;;;;;5105398;28;20784;-78
2024/02/11 03:08:41;;;;;;;1.47;1.23;;;14.00;99.90;;;;;;5104536;28;20638;-78
2024/02/11 03:11:07;;;;;;;0.30;0.20;;;14.10;99.90;;;;;;5106090;28;20239;-78
2024/02/11 03:13:32;;;;;;;0.67;0.67;;;14.10;99.90;;;;;;5106319;28;20533;-79
2024/02/11 03:15:58;;;;;;;0.30;0.20;;;14.10;99.90;;;;;;5104628;28;20180;-79
2024/02/11 03:18:25;;;;;;;0.30;0.20;;;14.10;99.90;;;;;;5105859;28;20332;-78
2024/02/11 03:20:50;;;;;;;0.30;0.20;;;14.20;99.90;;;;;;5104810;28;20664;-78
2024/02/11 03:23:17;;;;;;;0.30;0.20;;;14.20;99.90;;;;;;5106146;28;20443;-78
2024/02/11 03:25:43;;;;;;;0.30;0.20;;;14.10;99.90;;;;;;5105892;28;20179;-78
2024/02/11 03:28:08;;;;;;;0.80;0.80;;;14.10;99.90;;;;;;5105493;28;20440;-78
2024/02/11 03:30:35;;;;;;;0.40;0.40;;;14.10;99.90;;;;;;5104539;28;20726;-78
2024/02/11 03:33:01;;;;;;;0.30;0.20;;;14.00;99.90;;;;;;5104313;28;20200;-78
2024/02/11 03:35:27;;;;;;;0.30;0.20;;;13.90;99.90;;;;;;5105698;28;20467;-78
2024/02/11 03:37:52;;;;;;;0.30;0.20;;;13.90;99.90;;;;;;5105595;28;20188;-77
2024/02/11 03:40:19;;;;;;;0.30;0.20;;;13.90;99.90;;;;;;5105885;28;20411;-78
2024/02/11 03:42:45;;;;;;;0.30;0.20;;;13.90;99.90;;;;;;5105635;28;20511;-78
2024/02/11 03:45:12;;;;;;;0.30;0.20;;;13.80;99.90;;;;;;5105942;28;20424;-79
2024/02/11 03:47:41;;;;;;;0.40;0.40;;;13.70;99.90;;;;;;5104266;28;20455;-78
2024/02/11 03:50:10;;;;;;;0.30;0.20;;;13.70;99.90;;;;;;5105791;28;20532;-79
2024/02/11 03:52:36;;;;;;;0.57;0.57;;;13.80;99.90;;;;;;5105486;28;20427;-78
2024/02/11 03:55:11;;;;;;;0.30;0.20;;;13.80;99.90;;;;;;5105783;28;20403;-79
2024/02/11 03:57:40;;;;;;;0.30;0.20;;;13.80;99.90;;;;;;5104222;28;20221;-77
2024/02/11 04:00:19;;;;;;;1.73;1.63;;;13.70;99.90;;;;;;5104502;28;20413;-78
2024/02/11 04:02:45;;;;;;;0.30;0.20;;;13.70;99.90;;;;;;5104201;28;20983;-78
2024/02/11 04:05:15;;;;;;;0.83;0.83;;;13.70;99.90;;;;;;5105516;28;20415;-78
2024/02/11 04:07:47;;;;;;;0.30;0.20;;;13.70;99.90;;;;;;5105086;28;20238;-79
2024/02/11 04:10:19;;;;;;;0.30;0.20;;;13.80;99.90;;;;;;5105270;28;20468;-77
2024/02/11 04:12:48;;;;;;;0.30;0.20;;;13.80;99.90;;;;;;5105704;28;20432;-78
2024/02/11 04:15:19;;;;;;;1.63;1.53;;;13.90;99.90;;;;;;5104243;28;20412;-78
2024/02/11 04:17:48;;;;;;;0.30;0.20;;;13.90;99.90;;;;;;5105117;28;20811;-78
2024/02/11 04:20:23;;;;;;;0.30;0.20;;;14.00;99.90;;;;;;5104301;28;20653;-78
2024/02/11 04:22:59;;;;;;;0.30;0.20;;;14.00;99.90;;;;;;5105418;28;20442;-78
2024/02/11 04:25:30;;;;;;;0.30;0.20;;;14.00;99.90;;;;;;5104116;28;20415;-79
2024/02/11 04:27:56;;;;;;;0.30;0.20;;;14.10;99.90;;;;;;5104830;28;20428;-78
2024/02/11 04:30:22;;;;;;;0.33;0.30;;;14.00;99.90;;;;;;5103809;28;20479;-78
2024/02/11 04:32:48;;;;;;;0.87;0.83;;;14.10;99.90;;;;;;5105192;28;20598;-78
2024/02/11 04:35:15;;;;;;;0.30;0.20;;;14.10;99.90;;;;;;5104051;28;20271;-78
2024/02/11 04:37:49;;;;;;;0.30;0.20;;;14.20;99.90;;;;;;5104360;28;20603;-78
2024/02/11 04:40:16;;;;;;;0.30;0.20;;;14.20;99.90;;;;;;5108026;28;20412;-78
2024/02/11 04:42:44;;;;;;;0.30;0.20;;;14.20;99.90;;;;;;5108920;28;20507;-78
2024/02/11 04:45:15;;;;;;;0.30;0.20;;;14.20;99.90;;;;;;5109170;28;20481;-79
2024/02/11 04:47:45;;;;;;;0.30;0.20;;;14.30;99.90;;;;;;5107158;28;20475;-79
2024/02/11 04:50:15;;;;;;;0.30;0.20;;;14.20;99.90;;;;;;5109059;28;20474;-79
2024/02/11 04:52:53;;;;;;;0.30;0.20;;;14.30;99.90;;;;;;5107258;28;20431;-78
2024/02/11 04:55:27;;;;;;;0.70;0.67;;;14.30;99.90;;;;;;5109043;28;20404;-79
2024/02/11 04:57:58;;;;;;;18.57;8.67;;;14.40;99.90;;;;;;5108638;28;20442;-79
2024/02/11 05:00:25;;;;;;;0.30;0.20;;;14.30;99.90;;;;;;5109079;28;20436;-78
2024/02/11 05:02:55;;;;;;;0.93;0.93;;;14.30;99.90;;;;;;5107132;28;20475;-79
2024/02/11 05:05:30;;;;;;;0.30;0.20;;;14.30;99.90;;;;;;5107470;28;20651;-78
2024/02/11 05:08:03;;;;;;;0.30;0.20;;;14.30;99.90;;;;;;5107781;28;20443;-79
2024/02/11 05:10:37;;;;;;;1.60;1.60;;;14.30;99.90;;;;;;5106781;28;20487;-77
2024/02/11 05:13:06;;;;;;;0.30;0.20;;;14.30;99.90;;;;;;5107240;28;20500;-78
2024/02/11 05:15:33;;;;;;;1.90;1.33;;;14.30;99.90;;;;;;5108661;28;20898;-78
2024/02/11 05:18:00;;;;;;;0.30;0.20;;;14.30;99.90;;;;;;5108121;28;20436;-78
2024/02/11 05:20:27;;;;;;;0.30;0.20;;;14.40;99.90;;;;;;5108529;28;20412;-79
2024/02/11 05:22:55;;;;;;;0.30;0.20;;;14.40;99.90;;;;;;5106844;28;20511;-78
2024/02/11 05:25:22;;;;;;;0.30;0.20;;;14.50;99.90;;;;;;5108598;28;20400;-79
2024/02/11 05:27:56;;;;;;;0.30;0.30;;;14.50;99.90;;;;;;5108210;28;20791;-78
2024/02/11 05:30:24;;;;;;;0.30;0.20;;;14.60;99.90;;;;;;5107884;28;20576;-79
2024/02/11 05:32:53;;;;;;;0.30;0.20;;;14.60;99.90;;;;;;5107879;28;20432;-77
2024/02/11 05:35:23;;;;;;;0.30;0.20;;;14.60;99.90;;;;;;5108106;28;20427;-79
2024/02/11 05:37:57;;;;;;;2.40;2.23;;;14.60;99.90;;;;;;5107739;28;20439;-79
2024/02/11 05:40:26;;;;;;;0.30;0.20;;;14.70;99.90;;;;;;5107224;28;20691;-79
2024/02/11 05:42:53;;;;;;;0.30;0.20;;;14.70;99.90;;;;;;5107752;28;20560;-79
2024/02/11 05:45:20;;;;;;;0.60;0.57;;;14.80;99.90;;;;;;5106465;28;20936;-78
2024/02/11 05:47:47;;;;;;;0.30;0.20;;;14.80;99.90;;;;;;5107937;28;20432;-79
2024/02/11 05:50:12;;;;;;;0.30;0.30;;;14.90;99.90;;;;;;5105526;28;20472;-79
2024/02/11 05:52:39;;;;;;;0.30;0.20;;;14.90;99.90;;;;;;5107758;28;20979;-78
2024/02/11 05:55:09;;;;;;;0.80;0.80;;;14.90;99.90;;;;;;5107670;28;20435;-78
2024/02/11 05:57:41;;;;;;;0.30;0.20;;;14.90;99.90;;;;;;5106480;28;20440;-78
2024/02/11 06:00:14;;;;;;;0.30;0.20;;;14.90;99.90;;;;;;5106374;28;20423;-78
2024/02/11 06:02:47;;;;;;;0.30;0.20;;;14.90;99.90;;;;;;5107272;28;20499;-78
2024/02/11 06:05:14;;;;;;;0.30;0.20;;;14.90;99.90;;;;;;5106313;28;20420;-79
2024/02/11 06:07:49;;;;;;;0.60;0.60;;;15.00;99.90;;;;;;5105799;28;20784;-77
2024/02/11 06:10:19;;;;;;;0.30;0.20;;;14.90;99.90;;;;;;5106261;28;20566;-78
2024/02/11 06:12:45;;;;;;;0.30;0.20;;;14.90;99.90;;;;;;5107290;27;20440;-77
2024/02/11 06:15:21;;;;;;;0.30;0.20;;;15.00;99.90;;;;;;5105830;28;20420;-78
2024/02/11 06:17:51;;;;;;;0.30;0.20;;;15.00;99.90;;;;;;5106934;28;20491;-77
2024/02/11 06:20:20;;;;;;;0.30;0.30;;;14.90;99.90;;;;;;5107249;28;20424;-78
2024/02/11 06:22:50;;;;;;;0.30;0.20;;;14.90;99.90;;;;;;5106990;28;20477;-78
2024/02/11 06:25:16;;;;;;;0.30;0.20;;;15.00;99.90;;;;;;5107214;28;20447;-78
2024/02/11 06:27:42;;;;;;;0.30;0.20;;;15.00;99.90;;;;;;5106599;28;20920;-79
2024/02/11 06:30:13;;;;;;;0.30;0.20;;;15.00;99.90;;;;;;5107271;28;20829;-78
2024/02/11 06:32:46;;;;;;;0.30;0.20;;;15.00;99.90;;;;;;5106880;28;20442;-78
2024/02/11 06:35:12;;;;;;;0.30;0.20;;;15.00;99.90;;;;;;5105770;28;20488;-78
2024/02/11 06:37:40;;;;;;;0.30;0.20;;;15.00;99.90;;;;;;5106636;28;20432;-79
2024/02/11 06:40:10;;;;;;;0.30;0.20;;;15.00;99.90;;;;;;5105596;28;20412;-77
2024/02/11 06:42:37;;;;;;;0.30;0.20;;;15.00;99.90;;;;;;5106663;28;20796;-78
2024/02/11 06:45:06;;;;;;;0.30;0.20;;;15.00;99.90;;;;;;5105155;28;20977;-78
2024/02/11 06:47:34;;;;;;;0.30;0.20;;;15.00;99.90;;;;;;5106597;28;20403;-78
2024/02/11 06:50:00;;;;;;;0.30;0.20;;;15.10;99.90;;;;;;5106639;28;20412;-78
2024/02/11 06:52:27;;;;;;;0.30;0.20;;;15.00;99.90;;;;;;5106746;28;20633;-78
2024/02/11 06:54:53;;;;;;;16.77;15.67;;;15.00;99.90;;;;;;5106643;28;20207;-78
2024/02/11 06:57:20;;;;;;;0.30;0.20;;;15.00;99.90;;;;;;5106468;28;20730;-79
2024/02/11 06:59:47;;;;;;;0.30;0.20;;;15.00;99.90;;;;;;5106639;27;20411;-77
2024/02/11 07:02:14;;;;;;;0.30;0.20;;;15.00;99.90;;;;;;5104902;28;20411;-79
2024/02/11 07:04:43;;;;;;;0.40;0.40;;;15.00;99.90;;;;;;5105231;28;20431;-78
2024/02/11 07:07:09;;;;;;;0.30;0.20;;;15.10;99.90;;;;;;5106427;28;20947;-78
2024/02/11 07:09:36;;;;;;;0.30;0.20;;;15.00;99.90;;;;;;5106551;28;20451;-78
2024/02/11 07:12:02;;;;;;;0.30;0.20;;;15.10;99.90;;;;;;5105109;28;20471;-78
2024/02/11 07:14:27;;;;;;;0.30;0.20;;;15.10;99.90;;;;;;5104850;28;20947;-78
2024/02/11 07:16:58;;;;;;;0.30;0.20;;;15.20;99.90;;;;;;5104628;28;20927;-79
2024/02/11 07:19:28;;;;;;;0.30;0.20;;;15.20;99.90;;;;;;5106365;28;20219;-77
2024/02/11 07:21:53;;;;;;;0.30;0.20;;;15.30;99.90;;;;;;5106119;28;20470;-76
2024/02/11 07:24:19;;;;;;;0.30;0.20;;;15.40;99.90;;;;;;5105839;28;20536;-78
2024/02/11 07:26:49;;;;;;;0.30;0.20;;;15.50;99.90;;;;;;5106107;28;20186;-77
2024/02/11 07:29:17;;;;;;;0.30;0.20;;;15.50;99.90;;;;;;5105882;28;20782;-77
2024/02/11 07:31:43;;;;;;;0.30;0.20;;;15.50;99.80;;;;;;5105333;28;20459;-77
2024/02/11 07:34:10;;;;;;;0.30;0.20;;;15.60;99.70;;;;;;5104969;28;20834;-77
2024/02/11 07:36:40;;;;;;;0.30;0.20;;;15.60;99.80;;;;;;5105742;28;20411;-77
2024/02/11 07:39:05;;;;;;;0.30;0.20;;;15.60;99.60;;;;;;5105773;28;20431;-77
2024/02/11 07:41:31;;;;;;;0.30;0.20;;;15.70;99.60;;;;;;5104282;28;20599;-78
2024/02/11 07:43:57;;;;;;;0.30;0.20;;;15.80;99.50;;;;;;5102609;28;20833;-80
2024/02/11 07:46:23;;;;;;;0.30;0.20;;;15.80;99.20;;;;;;5102561;28;20517;-77
2024/02/11 07:48:49;;;;;;;0.30;0.20;;;15.80;99.00;;;;;;5103252;28;20195;-77
2024/02/11 07:51:15;;;;;;;0.30;0.20;;;15.90;99.00;;;;;;5101345;28;20705;-78
2024/02/11 07:53:41;;;;;;;0.30;0.20;;;16.00;98.80;;;;;;5101164;28;20460;-77
2024/02/11 07:56:19;;;;;;;0.30;0.20;;;16.00;98.90;;;;;;5104033;28;20419;-77
2024/02/11 07:58:45;;;;;;;0.30;0.20;;;16.00;98.80;;;;;;5103203;28;20917;-77
2024/02/11 08:01:11;;;;;;;0.30;0.20;;;16.10;98.80;;;;;;5102625;28;20449;-78
2024/02/11 08:03:37;;;;;;;0.60;0.60;;;16.20;98.60;;;;;;5104247;28;20232;-77
2024/02/11 08:06:04;;;;;;;0.30;0.20;;;16.20;98.60;;;;;;5103683;28;20180;-78
2024/02/11 08:08:30;;;;;;;0.30;0.20;;;16.30;98.70;;;;;;5103960;28;20433;-77
2024/02/11 08:10:56;;;;;;;0.30;0.20;;;16.30;98.60;;;;;;5103086;28;20483;-77
2024/02/11 08:13:21;;;;;;;0.30;0.20;;;16.40;98.70;;;;;;5105435;28;20221;-78
2024/02/11 08:15:47;;;;;;;0.30;0.20;;;16.40;98.50;;;;;;5106460;28;20605;-77
2024/02/11 08:18:13;;;;;;;0.30;0.20;;;16.50;98.80;;;;;;5107728;28;20446;-77
2024/02/11 08:20:39;;;;;;;0.30;0.20;;;16.70;98.70;;;;;;5108014;28;20260;-77
2024/02/11 08:23:05;;;;;;;2.00;1.90;;;16.90;98.40;;;;;;5107428;28;20531;-78
2024/02/11 08:25:35;;;;;;;1.27;1.23;;;17.00;98.30;;;;;;5108802;28;20172;-78
2024/02/11 08:28:01;;;;;;;0.40;0.40;;;17.20;98.00;;;;;;5109204;28;20434;-78
2024/02/11 08:30:26;;;;;;;0.30;0.20;;;17.40;97.90;;;;;;5107794;28;20462;-78
2024/02/11 08:32:52;;;;;;;0.30;0.20;;;17.50;97.70;;;;;;5109043;28;20270;-78
2024/02/11 08:35:21;;;;;;;0.30;0.30;;;17.70;97.10;;;;;;5108127;28;20183;-78
2024/02/11 08:37:47;;;;;;;0.30;0.20;;;17.70;97.20;;;;;;5109021;28;20195;-78
2024/02/11 08:40:13;;;;;;;0.30;0.20;;;17.70;97.00;;;;;;5109314;28;20430;-78
2024/02/11 08:42:42;;;;;;;0.50;0.50;;;17.70;97.10;;;;;;5109219;28;20488;-78
2024/02/11 08:45:08;;;;;;;0.30;0.30;;;17.80;97.00;;;;;;5108821;28;20710;-78
2024/02/11 08:47:37;;;;;;;3.47;3.33;;;17.90;97.10;;;;;;5107810;28;20442;-78
2024/02/11 08:50:04;;;;;;;0.30;0.20;;;17.90;97.20;;;;;;5107970;28;20454;-77
2024/02/11 08:52:31;;;;;;;0.30;0.20;;;17.90;97.00;;;;;;5109065;28;21017;-78
2024/02/11 08:54:56;;;;;;;0.30;0.20;;;17.80;97.20;;;;;;5107415;28;20478;-78
2024/02/11 08:57:22;;;;;;;0.30;0.20;;;17.70;97.40;;;;;;5109092;28;20415;-78
2024/02/11 08:59:48;;;;;;;0.30;0.20;;;17.80;97.20;;;;;;5107765;28;20222;-78
2024/02/11 09:02:17;;;;;;;0.30;0.20;;;17.80;97.50;;;;;;5107207;28;20229;-78
2024/02/11 09:04:43;;;;;;;0.30;0.20;;;17.80;97.40;;;;;;5107670;28;20825;-78
2024/02/11 09:07:10;;;;;;;0.30;0.20;;;17.90;97.40;;;;;;5108818;28;20499;-78
2024/02/11 09:09:36;;;;;;;0.30;0.20;;;18.00;97.10;;;;;;5109091;28;20783;-78
2024/02/11 09:12:02;;;;;;;0.60;0.60;;;17.90;97.10;;;;;;5108023;27;20680;-78
2024/02/11 09:14:30;;;;;;;0.30;0.20;;;17.80;97.30;;;;;;5106373;28;20442;-78
2024/02/11 09:16:59;;;;;;;0.30;0.30;;;17.70;97.20;;;;;;5106898;28;20548;-78
2024/02/11 09:19:26;;;;;;;0.30;0.20;;;17.70;97.70;;;;;;5108863;28;20489;-78
2024/02/11 09:21:52;;;;;;;0.30;0.20;;;17.60;97.30;;;;;;5108335;28;20466;-78
2024/02/11 09:24:18;;;;;;;0.30;0.20;;;17.60;97.30;;;;;;5105849;28;20442;-78
2024/02/11 09:26:44;;;;;;;0.30;0.20;;;17.50;97.60;;;;;;5106759;28;20413;-78
2024/02/11 09:29:10;;;;;;;0.30;0.20;;;17.50;97.70;;;;;;5106843;28;20442;-78
2024/02/11 09:31:38;;;;;;;0.30;0.20;;;17.50;97.80;;;;;;5106380;28;21174;-78
2024/02/11 09:34:05;;;;;;;0.30;0.20;;;17.40;98.10;;;;;;5108229;27;20442;-78
2024/02/11 09:36:33;;;;;;;0.30;0.20;;;17.40;97.80;;;;;;5108229;28;20440;-78
2024/02/11 09:39:00;;;;;;;0.30;0.20;;;17.40;98.00;;;;;;5107904;28;20474;-77
2024/02/11 09:41:30;;;;;;;0.30;0.20;;;17.40;98.00;;;;;;5107924;28;20474;-77
2024/02/11 09:44:04;;;;;;;0.30;0.20;;;17.40;98.30;;;;;;5108245;28;20426;-78
2024/02/11 09:46:37;;;;;;;0.30;0.20;;;17.50;98.10;;;;;;5106654;28;20989;-78
2024/02/11 09:49:18;;;;;;;0.30;0.20;;;17.60;97.60;;;;;;5107687;28;20430;-77
2024/02/11 09:51:48;;;;;;;0.30;0.20;;;17.70;97.70;;;;;;5108164;28;20460;-78
2024/02/11 09:54:15;;;;;;;0.30;0.20;;;17.80;97.90;;;;;;5106479;28;20431;-78
2024/02/11 09:56:42;;;;;;;0.30;0.30;;;18.00;97.80;;;;;;5106479;28;20901;-78
2024/02/11 09:59:09;;;;;;;0.30;0.20;;;18.10;97.80;;;;;;5107918;28;20942;-78
2024/02/11 10:01:38;;;;;;;0.30;0.20;;;18.20;97.40;;;;;;5107948;28;20515;-78
2024/02/11 10:04:06;;;;;;;0.30;0.20;;;18.30;97.40;;;;;;5106415;28;20545;-78
2024/02/11 10:06:39;;;;;;;0.40;0.20;;;18.40;97.10;;;;;;5107510;28;20411;-78
2024/02/11 10:09:06;;;;;;;0.30;0.20;;;18.60;97.20;;;;;;5106115;28;20444;-78
2024/02/11 10:11:34;;;;;;;0.40;0.20;;;19.10;96.70;;;;;;5107268;28;20971;-78
2024/02/11 10:14:00;;;;;;;0.30;0.20;;;19.60;95.70;;;;;;5106834;28;20424;-79
2024/02/11 10:16:29;;;;;;;0.40;0.20;;;20.00;95.70;;;;;;5107170;28;20439;-78
2024/02/11 10:18:57;;;;;;;0.30;0.20;;;20.20;95.30;;;;;;5107107;28;20287;-78
2024/02/11 10:21:23;;;;;;;0.30;0.20;;;20.50;95.30;;;;;;5105684;28;20835;-79
2024/02/11 10:23:50;;;;;;;3.07;2.97;;;20.50;94.60;;;;;;5105809;28;20458;-79
2024/02/11 10:26:15;;;;;;;0.30;0.20;;;20.20;94.50;;;;;;5105857;28;20420;-78
2024/02/11 10:28:41;;;;;;;0.30;0.20;;;19.80;94.50;;;;;;5107332;28;20960;-78
2024/02/11 10:31:07;;;;;;;0.30;0.20;;;19.70;95.00;;;;;;5105134;28;20212;-78
2024/02/11 10:33:33;;;;;;;0.30;0.20;;;19.70;94.90;;;;;;5106636;28;20198;-78
2024/02/11 10:36:03;;;;;;;0.40;0.27;;;19.80;94.80;;;;;;5106463;28;20161;-78
2024/02/11 10:38:32;;;;;;;0.30;0.20;;;19.80;94.90;;;;;;5107475;28;20966;-78
2024/02/11 10:40:58;;;;;;;0.30;0.20;;;20.00;94.80;;;;;;5106671;28;20400;-78
2024/02/11 10:43:26;;;;;;;0.30;0.20;;;20.10;94.60;;;;;;5107097;28;20969;-78
2024/02/11 10:45:52;;;;;;;0.30;0.20;;;20.20;94.80;;;;;;5106831;28;20414;-78
2024/02/11 10:48:19;;;;;;;0.60;0.60;;;20.50;94.30;;;;;;5106434;28;20519;-79
2024/02/11 10:51:07;;;;;;;0.30;0.20;;;20.70;94.00;;;;;;5107029;28;20294;-78
2024/02/11 10:53:36;;;;;;;0.30;0.20;;;20.80;93.70;;;;;;5106542;28;20780;-78
2024/02/11 10:56:04;;;;;;;0.63;0.60;;;20.80;94.10;;;;;;5106388;28;20404;-78
2024/02/11 10:58:33;;;;;;;2.40;2.30;;;20.90;94.00;;;;;;5105458;28;20456;-79
2024/02/11 11:01:00;;;;;;;0.30;0.20;;;20.90;93.90;;;;;;5104916;28;20412;-79
2024/02/11 11:03:28;;;;;;;0.30;0.20;;;20.90;93.40;;;;;;5106679;28;20531;-78
2024/02/11 11:05:57;;;;;;;0.30;0.20;;;20.80;93.50;;;;;;5104931;28;20416;-78
2024/02/11 11:08:23;;;;;;;0.30;0.20;;;20.80;93.70;;;;;;5106554;28;20436;-78
2024/02/11 11:10:49;;;;;;;0.30;0.20;;;20.80;93.50;;;;;;5104995;28;20475;-79
2024/02/11 11:13:23;;;;;;;0.30;0.20;;;20.80;93.80;;;;;;5106055;28;20441;-78
2024/02/11 11:15:52;;;;;;;0.73;0.73;;;20.90;93.20;;;;;;5103944;28;20168;-78
2024/02/11 11:18:22;;;;;;;0.30;0.30;;;21.00;93.20;;;;;;5106197;28;20543;-78
2024/02/11 11:20:55;;;;;;;0.30;0.20;;;20.90;93.20;;;;;;5105138;28;20420;-78
2024/02/11 11:23:28;;;;;;;0.30;0.20;;;20.90;93.10;;;;;;5104884;28;20463;-79
2024/02/11 11:25:58;;;;;;;0.30;0.30;;;20.90;93.20;;;;;;5106218;28;20427;-78
2024/02/11 11:28:32;;;;;;;0.30;0.20;;;20.90;93.10;;;;;;5106275;28;20843;-79
2024/02/11 11:30:59;;;;;;;0.30;0.20;;;20.90;93.10;;;;;;5105944;28;20514;-79
2024/02/11 11:33:27;;;;;;;0.30;0.20;;;21.00;92.80;;;;;;5105962;28;20435;-79
2024/02/11 11:35:58;;;;;;;0.30;0.20;;;21.00;92.80;;;;;;5104498;28;20424;-78
2024/02/11 11:38:26;;;;;;;0.30;0.20;;;20.90;92.90;;;;;;5104693;28;20451;-78
2024/02/11 11:40:53;;;;;;;1.53;0.97;;;20.80;93.00;;;;;;5105926;28;20541;-79
2024/02/11 11:43:24;;;;;;;0.50;0.40;;;20.60;93.10;;;;;;5105751;28;20429;-78
2024/02/11 11:45:56;;;;;;;0.30;0.20;;;20.50;93.20;;;;;;5104870;28;20412;-78
2024/02/11 11:48:22;;;;;;;0.30;0.20;;;20.50;93.20;;;;;;5105017;28;20424;-78
2024/02/11 11:50:58;;;;;;;0.53;0.53;;;20.50;93.20;;;;;;5106049;28;20476;-78
2024/02/11 11:53:24;;;;;;;0.30;0.20;;;20.40;93.20;;;;;;5104353;28;20526;-78
2024/02/11 11:55:51;;;;;;;0.67;0.50;;;20.20;93.10;;;;;;5104568;28;20921;-78
2024/02/11 11:58:32;;;;;;;0.30;0.20;;;20.10;93.30;;;;;;5105500;28;20852;-78
2024/02/11 12:01:06;;;;;;;0.30;0.20;;;20.10;93.30;;;;;;5105479;28;20457;-79
2024/02/11 12:03:33;;;;;;;1.37;1.37;;;19.90;93.30;;;;;;5104455;28;20869;-78
2024/02/11 12:06:00;;;;;;;0.30;0.20;;;19.90;93.10;;;;;;5105545;28;20424;-78
2024/02/11 12:08:26;;;;;;;0.30;0.20;;;19.80;93.10;;;;;;5105791;28;20801;-78
2024/02/11 12:10:59;;;;;;;0.30;0.20;;;19.80;93.10;;;;;;5104256;28;20879;-78
2024/02/11 12:13:26;;;;;;;0.83;0.83;;;19.70;93.30;;;;;;5105519;28;20444;-78
2024/02/11 12:15:54;;;;;;;0.30;0.20;;;19.70;93.40;;;;;;5103481;28;20424;-78
2024/02/11 12:18:20;;;;;;;0.30;0.20;;;19.70;93.20;;;;;;5105024;28;21010;-78
2024/02/11 12:20:47;;;;;;;0.30;0.20;;;19.70;93.20;;;;;;5105761;28;20404;-78
2024/02/11 12:23:17;;;;;;;0.30;0.20;;;19.60;93.20;;;;;;5103704;28;20796;-78
2024/02/11 12:25:44;;;;;;;0.30;0.20;;;19.70;93.20;;;;;;5106006;28;20689;-78
2024/02/11 12:28:11;;;;;;;0.30;0.20;;;19.70;93.30;;;;;;5103720;28;20483;-78
2024/02/11 12:30:46;;;;;;;0.30;0.20;;;19.70;93.30;;;;;;5105655;28;20855;-78
2024/02/11 12:33:12;;;;;;;0.30;0.20;;;19.70;93.30;;;;;;5104969;28;20530;-78
2024/02/11 12:35:39;;;;;;;0.30;0.20;;;19.80;93.40;;;;;;5105406;28;20503;-78
2024/02/11 12:38:05;;;;;;;0.30;0.20;;;19.80;93.30;;;;;;5105157;28;20538;-78
2024/02/11 12:40:30;;;;;;;0.30;0.20;;;19.80;93.40;;;;;;5105538;28;20507;-78
2024/02/11 12:42:57;;;;;;;0.30;0.30;;;19.80;93.60;;;;;;5105216;28;20199;-78
2024/02/11 12:45:23;;;;;;;0.30;0.20;;;19.80;93.20;;;;;;5105382;28;20218;-78
2024/02/11 12:47:49;;;;;;;0.30;0.20;;;19.80;93.20;;;;;;5104880;28;20853;-78